Time;durP1;ratioP1;P1;durP2;ratioP2;P2;SDS_P1;SDS_P2;PMS_P1;PMS_P2;Temp;Humidity;BMP_temperature;BMP_pressure;BME280_temperature;BME280_humidity;BME280_pressure;Samples;Min_cycle;Max_cycle;Signal;HPM_P1;HPM_P2
2021/06/06 00:00:34;;;;;;;3.78;1.00;;;;;;;;;;5040149;28;20142;-53
2021/06/06 00:03:01;;;;;;;4.35;1.10;;;;;;;;;;5041562;28;20094;-55
2021/06/06 00:05:47;;;;;;;2.17;0.85;;;;;;;;;;5039474;28;20045;-55
2021/06/06 00:08:13;;;;;;;5.03;0.93;;;;;;;;;;5038593;28;20032;-54
2021/06/06 00:10:39;;;;;;;3.88;0.93;;;;;;;;;;5040003;28;20059;-56
2021/06/06 00:13:04;;;;;;;1.75;0.70;;;;;;;;;;5041682;28;20043;-56
2021/06/06 00:15:30;;;;;;;3.55;0.90;;;;;;;;;;5041526;28;20466;-55
2021/06/06 00:17:56;;;;;;;2.58;0.85;;;;;;;;;;5041675;28;20513;-53
2021/06/06 00:20:26;;;;;;;2.67;0.77;;;;;;;;;;5041750;28;20041;-52
2021/06/06 00:22:52;;;;;;;3.80;0.90;;;;;;;;;;5044054;28;20045;-54
2021/06/06 00:25:18;;;;;;;2.25;0.70;;;;;;;;;;5041524;28;22377;-52
2021/06/06 00:27:44;;;;;;;3.05;0.80;;;;;;;;;;5041993;28;20041;-53
2021/06/06 00:30:10;;;;;;;3.30;0.80;;;;;;;;;;5042968;28;20083;-54
2021/06/06 00:32:36;;;;;;;2.42;0.70;;;;;;;;;;5041390;28;20033;-55
2021/06/06 00:35:02;;;;;;;2.05;0.60;;;;;;;;;;5040053;28;20049;-54
2021/06/06 00:37:27;;;;;;;3.88;1.00;;;;;;;;;;5038376;28;21975;-56
2021/06/06 00:39:53;;;;;;;4.47;1.20;;;;;;;;;;5039421;28;20041;-54
2021/06/06 00:42:20;;;;;;;3.78;1.05;;;;;;;;;;5041749;28;20611;-55
2021/06/06 00:44:46;;;;;;;3.72;0.80;;;;;;;;;;5040245;28;20531;-54
2021/06/06 00:47:12;;;;;;;3.15;1.17;;;;;;;;;;5040905;28;20055;-54
2021/06/06 00:49:38;;;;;;;3.38;1.00;;;;;;;;;;5038571;28;20049;-53
2021/06/06 00:52:04;;;;;;;2.92;1.00;;;;;;;;;;5039776;28;20075;-54
2021/06/06 00:54:32;;;;;;;3.78;1.35;;;;;;;;;;5039277;28;20049;-56
2021/06/06 00:57:05;;;;;;;6.22;1.42;;;;;;;;;;5040331;28;20048;-55
2021/06/06 00:59:32;;;;;;;5.32;1.30;;;;;;;;;;5036561;28;20053;-55
2021/06/06 01:01:57;;;;;;;2.88;1.15;;;;;;;;;;5038925;28;20048;-54
2021/06/06 01:04:23;;;;;;;3.47;0.98;;;;;;;;;;5041498;28;20040;-54
2021/06/06 01:06:51;;;;;;;2.92;0.70;;;;;;;;;;5040424;28;20127;-56
2021/06/06 01:09:20;;;;;;;3.55;1.10;;;;;;;;;;5039613;28;20033;-55
2021/06/06 01:11:52;;;;;;;1.52;0.57;;;;;;;;;;5040199;28;20496;-55
2021/06/06 01:14:28;;;;;;;2.47;0.80;;;;;;;;;;5040702;28;20461;-56
2021/06/06 01:17:26;;;;;;;2.15;0.68;;;;;;;;;;5041995;28;20044;-52
2021/06/06 01:19:55;;;;;;;3.63;0.80;;;;;;;;;;5015026;28;20455;-53
2021/06/06 01:22:35;;;;;;;3.40;1.08;;;;;;;;;;5043594;28;20041;-55
2021/06/06 01:25:13;;;;;;;3.30;0.93;;;;;;;;;;5044128;28;20070;-56
2021/06/06 01:27:41;;;;;;;3.85;0.70;;;;;;;;;;5042346;28;20045;-53
2021/06/06 01:30:07;;;;;;;4.00;0.90;;;;;;;;;;5042476;28;20628;-54
2021/06/06 01:32:39;;;;;;;3.08;1.00;;;;;;;;;;5042590;28;20049;-53
2021/06/06 01:35:09;;;;;;;2.92;0.90;;;;;;;;;;5041869;28;20614;-53
2021/06/06 01:37:37;;;;;;;3.05;1.00;;;;;;;;;;5042163;28;20505;-54
2021/06/06 01:40:03;;;;;;;2.50;0.70;;;;;;;;;;5042652;28;20962;-55
2021/06/06 01:42:33;;;;;;;3.47;0.80;;;;;;;;;;5042265;28;20036;-54
2021/06/06 01:45:04;;;;;;;3.70;0.90;;;;;;;;;;5043704;28;20029;-53
2021/06/06 01:47:30;;;;;;;3.70;1.08;;;;;;;;;;5043108;28;20114;-51
2021/06/06 01:50:01;;;;;;;4.38;1.02;;;;;;;;;;5042108;28;20124;-53
2021/06/06 01:52:29;;;;;;;3.75;0.80;;;;;;;;;;5044284;28;20107;-52
2021/06/06 01:54:56;;;;;;;2.20;0.70;;;;;;;;;;5042454;28;20045;-54
2021/06/06 01:57:23;;;;;;;2.60;0.80;;;;;;;;;;5039361;28;20104;-56
2021/06/06 01:59:52;;;;;;;2.95;0.70;;;;;;;;;;5039644;28;20437;-54
2021/06/06 02:02:18;;;;;;;2.75;0.75;;;;;;;;;;5042225;28;20039;-55
2021/06/06 02:04:44;;;;;;;2.50;0.73;;;;;;;;;;5042922;28;20477;-53
2021/06/06 02:07:14;;;;;;;3.53;0.70;;;;;;;;;;5041374;28;20126;-53
2021/06/06 02:10:05;;;;;;;2.42;0.80;;;;;;;;;;5036548;28;20044;-55
2021/06/06 02:12:32;;;;;;;2.20;0.70;;;;;;;;;;5037908;28;20033;-54
2021/06/06 02:14:58;;;;;;;2.17;0.73;;;;;;;;;;5040439;28;20044;-53
2021/06/06 02:17:31;;;;;;;2.53;0.80;;;;;;;;;;5034164;28;20036;-53
2021/06/06 02:19:57;;;;;;;3.00;1.05;;;;;;;;;;5034605;28;20067;-53
2021/06/06 02:22:23;;;;;;;2.50;0.80;;;;;;;;;;5039398;28;20033;-56
2021/06/06 02:24:49;;;;;;;2.58;0.77;;;;;;;;;;5040929;28;20657;-56
2021/06/06 02:27:18;;;;;;;2.45;0.70;;;;;;;;;;5033529;28;20762;-55
2021/06/06 02:30:07;;;;;;;2.50;0.80;;;;;;;;;;5033612;28;20139;-56
2021/06/06 02:32:51;;;;;;;2.65;0.70;;;;;;;;;;5038144;28;20047;-55
2021/06/06 02:35:40;;;;;;;2.42;0.60;;;;;;;;;;5039483;28;20041;-56
2021/06/06 02:38:34;;;;;;;2.35;0.80;;;;;;;;;;5034007;28;20200;-54
2021/06/06 02:41:04;;;;;;;2.60;0.80;;;;;;;;;;5039864;28;20045;-56
2021/06/06 02:43:33;;;;;;;4.22;0.80;;;;;;;;;;5042948;28;20041;-57
2021/06/06 02:46:01;;;;;;;2.60;0.85;;;;;;;;;;5043751;28;20068;-56
2021/06/06 02:48:29;;;;;;;2.70;0.90;;;;;;;;;;5043464;28;20029;-56
2021/06/06 02:51:02;;;;;;;2.60;0.82;;;;;;;;;;5043353;28;20058;-55
2021/06/06 02:53:32;;;;;;;2.70;0.90;;;;;;;;;;5043852;28;20033;-56
2021/06/06 02:56:01;;;;;;;2.83;0.90;;;;;;;;;;5044652;28;20052;-53
2021/06/06 02:58:36;;;;;;;3.03;1.10;;;;;;;;;;5042977;28;20037;-55
2021/06/06 03:01:07;;;;;;;3.92;1.50;;;;;;;;;;5028602;28;20505;-56
2021/06/06 03:03:34;;;;;;;3.78;1.35;;;;;;;;;;5043109;28;20040;-56
2021/06/06 03:06:00;;;;;;;2.95;1.20;;;;;;;;;;5043407;28;20055;-56
2021/06/06 03:08:26;;;;;;;4.75;1.80;;;;;;;;;;5042122;28;20112;-55
2021/06/06 03:10:53;;;;;;;4.72;1.40;;;;;;;;;;5045771;28;20128;-56
2021/06/06 03:13:21;;;;;;;3.55;1.23;;;;;;;;;;5042373;28;20094;-56
2021/06/06 03:15:50;;;;;;;6.15;1.63;;;;;;;;;;5043058;28;20040;-56
2021/06/06 03:18:16;;;;;;;5.30;1.38;;;;;;;;;;5041741;28;20670;-54
2021/06/06 03:20:44;;;;;;;4.65;1.70;;;;;;;;;;5040662;28;20051;-56
2021/06/06 03:23:12;;;;;;;4.38;1.65;;;;;;;;;;5041377;28;20043;-55
2021/06/06 03:25:44;;;;;;;5.00;1.70;;;;;;;;;;5040813;28;20048;-54
2021/06/06 03:28:12;;;;;;;4.05;1.35;;;;;;;;;;5041666;28;20044;-55
2021/06/06 03:30:41;;;;;;;4.60;1.60;;;;;;;;;;5042510;28;20166;-55
2021/06/06 03:33:17;;;;;;;3.40;1.30;;;;;;;;;;5042826;28;20439;-54
2021/06/06 03:35:43;;;;;;;2.75;1.10;;;;;;;;;;5041801;28;20401;-56
2021/06/06 03:38:11;;;;;;;4.90;1.60;;;;;;;;;;5040033;28;22001;-56
2021/06/06 03:40:39;;;;;;;5.35;1.75;;;;;;;;;;5039544;28;20068;-56
2021/06/06 03:43:06;;;;;;;3.63;1.60;;;;;;;;;;5040546;28;20561;-55
2021/06/06 03:45:32;;;;;;;6.45;1.90;;;;;;;;;;5041177;28;20128;-56
2021/06/06 03:47:58;;;;;;;5.78;1.70;;;;;;;;;;5039074;28;20029;-55
2021/06/06 03:50:25;;;;;;;5.72;1.85;;;;;;;;;;5040359;28;20036;-56
2021/06/06 03:52:51;;;;;;;4.57;1.80;;;;;;;;;;5038446;28;20548;-56
2021/06/06 03:55:19;;;;;;;3.80;1.80;;;;;;;;;;5039462;28;20041;-55
2021/06/06 03:57:44;;;;;;;4.13;1.80;;;;;;;;;;5040094;28;20053;-57
2021/06/06 04:00:14;;;;;;;3.97;1.80;;;;;;;;;;5040836;28;20048;-56
2021/06/06 04:02:41;;;;;;;6.35;1.55;;;;;;;;;;5042517;28;20045;-56
2021/06/06 04:05:07;;;;;;;3.63;1.38;;;;;;;;;;5040411;28;20063;-53
2021/06/06 04:07:32;;;;;;;8.68;1.38;;;;;;;;;;5039824;28;20557;-54
2021/06/06 04:10:00;;;;;;;6.20;1.40;;;;;;;;;;5043968;28;20037;-56
2021/06/06 04:12:26;;;;;;;5.47;1.40;;;;;;;;;;5043914;28;20037;-56
2021/06/06 04:14:52;;;;;;;3.33;1.15;;;;;;;;;;5044428;28;20080;-54
2021/06/06 04:17:17;;;;;;;5.28;1.50;;;;;;;;;;5044270;28;20044;-56
2021/06/06 04:19:43;;;;;;;3.00;1.30;;;;;;;;;;5041600;28;20052;-54
2021/06/06 04:22:09;;;;;;;4.65;1.30;;;;;;;;;;5042861;28;20045;-54
2021/06/06 04:24:35;;;;;;;3.58;1.20;;;;;;;;;;5042738;28;20055;-56
2021/06/06 04:27:01;;;;;;;3.38;1.40;;;;;;;;;;5042653;28;20120;-57
2021/06/06 04:29:26;;;;;;;4.43;1.30;;;;;;;;;;5040612;28;20699;-56
2021/06/06 04:31:52;;;;;;;3.97;1.02;;;;;;;;;;5042071;28;20041;-54
2021/06/06 04:34:18;;;;;;;4.88;1.33;;;;;;;;;;5041353;28;20053;-56
2021/06/06 04:36:47;;;;;;;3.95;1.17;;;;;;;;;;5042338;28;20087;-54
2021/06/06 04:39:13;;;;;;;3.97;1.30;;;;;;;;;;5040738;28;20053;-55
2021/06/06 04:41:39;;;;;;;3.47;1.15;;;;;;;;;;5040605;28;20040;-56
2021/06/06 04:44:05;;;;;;;4.22;0.98;;;;;;;;;;5043165;28;20033;-54
2021/06/06 04:46:30;;;;;;;3.75;0.98;;;;;;;;;;5041040;28;20053;-56
2021/06/06 04:48:56;;;;;;;2.25;0.73;;;;;;;;;;5041060;28;20044;-54
2021/06/06 04:51:23;;;;;;;2.70;0.82;;;;;;;;;;5036562;28;20059;-54
2021/06/06 04:53:50;;;;;;;2.70;0.80;;;;;;;;;;5042139;28;20458;-54
2021/06/06 04:56:17;;;;;;;3.22;0.60;;;;;;;;;;5044341;28;20045;-54
2021/06/06 04:58:43;;;;;;;2.70;0.82;;;;;;;;;;5044136;28;21959;-55
2021/06/06 05:01:09;;;;;;;2.42;0.70;;;;;;;;;;5047375;28;20497;-55
2021/06/06 05:03:35;;;;;;;1.83;0.70;;;;;;;;;;5045258;28;20036;-53
2021/06/06 05:06:01;;;;;;;2.90;0.70;;;;;;;;;;5046316;28;20116;-55
2021/06/06 05:08:27;;;;;;;2.03;0.60;;;;;;;;;;5045986;28;20287;-54
2021/06/06 05:10:53;;;;;;;1.70;0.57;;;;;;;;;;5045755;28;20037;-55
2021/06/06 05:13:20;;;;;;;3.20;0.70;;;;;;;;;;5044589;28;20131;-57
2021/06/06 05:15:46;;;;;;;2.03;0.60;;;;;;;;;;5043930;28;20102;-56
2021/06/06 05:18:12;;;;;;;3.00;0.90;;;;;;;;;;5044271;28;20403;-54
2021/06/06 05:20:39;;;;;;;2.00;0.60;;;;;;;;;;5043845;28;20041;-56
2021/06/06 05:23:06;;;;;;;1.85;0.60;;;;;;;;;;5045459;28;20107;-56
2021/06/06 05:25:33;;;;;;;1.77;0.55;;;;;;;;;;5045233;28;20029;-56
2021/06/06 05:27:59;;;;;;;2.33;0.63;;;;;;;;;;5045129;28;20576;-57
2021/06/06 05:30:28;;;;;;;1.80;0.50;;;;;;;;;;5043009;28;20033;-54
2021/06/06 05:32:54;;;;;;;1.77;0.50;;;;;;;;;;5042756;28;20048;-52
2021/06/06 05:35:21;;;;;;;2.00;0.43;;;;;;;;;;5041016;28;20045;-56
2021/06/06 05:37:47;;;;;;;1.50;0.50;;;;;;;;;;5042944;28;20048;-56
2021/06/06 05:40:14;;;;;;;1.75;0.60;;;;;;;;;;5044766;28;20782;-56
2021/06/06 05:42:40;;;;;;;2.33;0.45;;;;;;;;;;5041596;28;20116;-56
2021/06/06 05:45:07;;;;;;;1.73;0.60;;;;;;;;;;5044031;28;20045;-55
2021/06/06 05:47:32;;;;;;;3.22;0.50;;;;;;;;;;5044574;28;21055;-55
2021/06/06 05:49:58;;;;;;;2.40;0.70;;;;;;;;;;5045288;28;20037;-56
2021/06/06 05:52:24;;;;;;;2.55;0.63;;;;;;;;;;5042122;28;20028;-55
2021/06/06 05:54:50;;;;;;;2.13;0.65;;;;;;;;;;5041309;28;20041;-54
2021/06/06 05:57:16;;;;;;;2.47;0.80;;;;;;;;;;5044310;28;20095;-55
2021/06/06 05:59:42;;;;;;;2.25;0.70;;;;;;;;;;5042384;28;20140;-55
2021/06/06 06:02:07;;;;;;;2.33;0.70;;;;;;;;;;5042763;28;20071;-55
2021/06/06 06:04:33;;;;;;;2.70;0.65;;;;;;;;;;5042206;28;20041;-55
2021/06/06 06:06:59;;;;;;;2.97;0.60;;;;;;;;;;5044724;28;20158;-54
2021/06/06 06:09:25;;;;;;;4.25;0.60;;;;;;;;;;5042690;28;20501;-54
2021/06/06 06:11:51;;;;;;;3.10;1.25;;;;;;;;;;5044102;28;20122;-52
2021/06/06 06:14:16;;;;;;;2.80;0.80;;;;;;;;;;5043692;28;20040;-54
2021/06/06 06:16:42;;;;;;;3.40;0.90;;;;;;;;;;5043369;28;20056;-55
2021/06/06 06:19:09;;;;;;;3.92;0.90;;;;;;;;;;5043431;28;20443;-54
2021/06/06 06:21:36;;;;;;;3.08;0.90;;;;;;;;;;5046068;28;20494;-56
2021/06/06 06:24:02;;;;;;;3.28;0.93;;;;;;;;;;5044683;28;20358;-55
2021/06/06 06:26:28;;;;;;;3.50;1.25;;;;;;;;;;5045477;28;20041;-54
2021/06/06 06:28:54;;;;;;;4.93;1.20;;;;;;;;;;5043165;28;20045;-54
2021/06/06 06:31:20;;;;;;;5.82;1.20;;;;;;;;;;5043699;28;20037;-52
2021/06/06 06:33:46;;;;;;;5.32;0.95;;;;;;;;;;5060811;28;20044;-52
2021/06/06 06:36:13;;;;;;;3.95;1.10;;;;;;;;;;5047508;28;20037;-53
2021/06/06 06:38:39;;;;;;;5.00;1.30;;;;;;;;;;5043543;28;20037;-55
2021/06/06 06:41:05;;;;;;;4.50;1.27;;;;;;;;;;5046160;28;20411;-55
2021/06/06 06:43:31;;;;;;;3.42;1.33;;;;;;;;;;5045590;28;20040;-56
2021/06/06 06:45:57;;;;;;;3.88;1.17;;;;;;;;;;5046561;28;20078;-55
2021/06/06 06:48:24;;;;;;;2.85;1.00;;;;;;;;;;5044830;28;20049;-55
2021/06/06 06:50:51;;;;;;;3.10;1.17;;;;;;;;;;5046611;28;20037;-56
2021/06/06 06:53:18;;;;;;;3.15;1.30;;;;;;;;;;5047181;28;20036;-55
2021/06/06 06:55:44;;;;;;;4.22;1.38;;;;;;;;;;5047455;28;20041;-55
2021/06/06 06:58:10;;;;;;;4.43;1.30;;;;;;;;;;5048644;28;20572;-55
2021/06/06 07:00:40;;;;;;;3.15;1.00;;;;;;;;;;5052801;28;20055;-55
2021/06/06 07:03:07;;;;;;;3.17;1.30;;;;;;;;;;5058761;28;20060;-55
2021/06/06 07:05:33;;;;;;;2.90;1.20;;;;;;;;;;5056141;28;20040;-53
2021/06/06 07:07:59;;;;;;;3.42;1.40;;;;;;;;;;5055339;28;20100;-52
2021/06/06 07:10:27;;;;;;;3.60;1.45;;;;;;;;;;5048736;28;20040;-54
2021/06/06 07:12:52;;;;;;;3.65;1.40;;;;;;;;;;5043498;28;20032;-55
2021/06/06 07:15:18;;;;;;;3.63;1.50;;;;;;;;;;5043530;28;20036;-54
2021/06/06 07:17:44;;;;;;;3.70;1.55;;;;;;;;;;5044169;28;20041;-53
2021/06/06 07:20:13;;;;;;;3.22;1.50;;;;;;;;;;5043437;28;20473;-53
2021/06/06 07:22:38;;;;;;;3.40;1.50;;;;;;;;;;5043930;28;20045;-55
2021/06/06 07:25:05;;;;;;;2.58;1.00;;;;;;;;;;5045234;28;20033;-54
2021/06/06 07:27:33;;;;;;;3.38;1.10;;;;;;;;;;5042256;28;20567;-55
2021/06/06 07:29:59;;;;;;;3.30;1.00;;;;;;;;;;5045044;28;20434;-55
2021/06/06 07:32:25;;;;;;;3.85;1.10;;;;;;;;;;5045316;28;20033;-52
2021/06/06 07:34:52;;;;;;;3.58;1.17;;;;;;;;;;5045842;28;20049;-56
2021/06/06 07:37:18;;;;;;;3.92;1.40;;;;;;;;;;5041874;28;20040;-55
2021/06/06 07:39:44;;;;;;;3.30;1.20;;;;;;;;;;5042633;28;20061;-56
2021/06/06 07:42:11;;;;;;;2.78;1.10;;;;;;;;;;5042860;28;20036;-54
2021/06/06 07:44:37;;;;;;;4.15;1.10;;;;;;;;;;5042077;28;20063;-56
2021/06/06 07:47:07;;;;;;;4.50;1.40;;;;;;;;;;5043635;28;20436;-53
2021/06/06 07:49:33;;;;;;;6.45;1.33;;;;;;;;;;5042434;28;20093;-54
2021/06/06 07:51:59;;;;;;;6.03;1.50;;;;;;;;;;5042992;28;20036;-56
2021/06/06 07:54:25;;;;;;;8.93;1.73;;;;;;;;;;5043078;28;20089;-54
2021/06/06 07:56:51;;;;;;;3.83;1.05;;;;;;;;;;5042622;28;20591;-55
2021/06/06 07:59:16;;;;;;;4.57;1.30;;;;;;;;;;5043138;28;20498;-52
2021/06/06 08:01:42;;;;;;;4.75;1.48;;;;;;;;;;5040933;28;20040;-56
2021/06/06 08:04:08;;;;;;;4.70;1.48;;;;;;;;;;5042724;28;20041;-55
2021/06/06 08:06:34;;;;;;;4.47;1.83;;;;;;;;;;5042619;28;20040;-55
2021/06/06 08:09:00;;;;;;;4.40;1.90;;;;;;;;;;5042454;28;20073;-52
2021/06/06 08:11:26;;;;;;;3.83;1.60;;;;;;;;;;5043079;28;20037;-55
2021/06/06 08:13:52;;;;;;;2.65;1.02;;;;;;;;;;5044309;28;20125;-56
2021/06/06 08:16:18;;;;;;;3.45;1.02;;;;;;;;;;5040716;28;20036;-55
2021/06/06 08:18:46;;;;;;;2.65;1.13;;;;;;;;;;5042121;28;20843;-53
2021/06/06 08:21:11;;;;;;;5.22;0.80;;;;;;;;;;5041894;28;20199;-54
2021/06/06 08:23:38;;;;;;;5.38;0.98;;;;;;;;;;5041103;28;20041;-54
2021/06/06 08:26:04;;;;;;;3.42;1.10;;;;;;;;;;5042349;28;20064;-55
2021/06/06 08:28:31;;;;;;;3.20;1.10;;;;;;;;;;5040819;28;20139;-52
2021/06/06 08:31:03;;;;;;;2.88;1.00;;;;;;;;;;5044094;28;20093;-55
2021/06/06 08:33:29;;;;;;;2.95;1.10;;;;;;;;;;5048421;28;20044;-55
2021/06/06 08:35:57;;;;;;;2.38;0.80;;;;;;;;;;5045819;28;20138;-52
2021/06/06 08:38:23;;;;;;;4.35;1.30;;;;;;;;;;5044374;28;20041;-55
2021/06/06 08:40:52;;;;;;;3.53;1.10;;;;;;;;;;5046969;28;20051;-55
2021/06/06 08:43:19;;;;;;;5.10;1.10;;;;;;;;;;5047126;28;20044;-53
2021/06/06 08:45:49;;;;;;;4.30;1.27;;;;;;;;;;5046112;28;20115;-55
2021/06/06 08:48:17;;;;;;;3.03;1.20;;;;;;;;;;5046688;28;20143;-53
2021/06/06 08:50:45;;;;;;;3.30;1.25;;;;;;;;;;5046273;28;20039;-55
2021/06/06 08:53:17;;;;;;;3.58;1.33;;;;;;;;;;5046270;28;20767;-55
2021/06/06 08:56:04;;;;;;;7.85;1.50;;;;;;;;;;5043905;28;20045;-55
2021/06/06 08:58:40;;;;;;;3.20;1.40;;;;;;;;;;5045372;28;20126;-55
2021/06/06 09:01:16;;;;;;;3.10;1.27;;;;;;;;;;5045171;28;20037;-55
2021/06/06 09:03:43;;;;;;;2.92;1.30;;;;;;;;;;5045883;28;20129;-53
2021/06/06 09:06:13;;;;;;;2.90;1.30;;;;;;;;;;5045150;28;20091;-55
2021/06/06 09:08:39;;;;;;;4.82;1.60;;;;;;;;;;5043145;28;20040;-55
2021/06/06 09:11:07;;;;;;;4.28;1.67;;;;;;;;;;5046854;28;20032;-54
2021/06/06 09:13:33;;;;;;;4.00;1.50;;;;;;;;;;5045664;28;20044;-56
2021/06/06 09:16:09;;;;;;;3.20;1.80;;;;;;;;;;5047263;28;20037;-52
2021/06/06 09:18:35;;;;;;;3.85;1.70;;;;;;;;;;5044302;28;20175;-55
2021/06/06 09:21:12;;;;;;;5.57;1.80;;;;;;;;;;5046662;28;20084;-56
2021/06/06 09:23:38;;;;;;;3.53;1.90;;;;;;;;;;5045108;28;20075;-54
2021/06/06 09:26:04;;;;;;;4.95;1.70;;;;;;;;;;5043568;28;20124;-53
2021/06/06 09:28:30;;;;;;;5.03;1.92;;;;;;;;;;5043048;28;20697;-54
2021/06/06 09:31:00;;;;;;;4.13;1.90;;;;;;;;;;5043950;28;20229;-53
2021/06/06 09:33:29;;;;;;;4.13;1.80;;;;;;;;;;5042904;28;20103;-55
2021/06/06 09:35:56;;;;;;;4.97;2.20;;;;;;;;;;5045459;28;20080;-55
2021/06/06 09:38:32;;;;;;;4.03;2.05;;;;;;;;;;5044730;28;20518;-55
2021/06/06 09:41:13;;;;;;;3.25;1.90;;;;;;;;;;5042755;28;20713;-55
2021/06/06 09:43:39;;;;;;;3.80;2.00;;;;;;;;;;5045336;28;20072;-56
2021/06/06 09:46:07;;;;;;;3.28;1.67;;;;;;;;;;5045218;28;20581;-55
2021/06/06 09:48:39;;;;;;;2.35;0.77;;;;;;;;;;5042039;28;20064;-55
2021/06/06 09:51:31;;;;;;;3.03;1.08;;;;;;;;;;5043316;28;20469;-55
2021/06/06 09:54:08;;;;;;;2.38;0.68;;;;;;;;;;5039689;28;20570;-55
2021/06/06 09:56:35;;;;;;;2.45;0.70;;;;;;;;;;5043155;28;20060;-56
2021/06/06 09:59:27;;;;;;;2.28;0.80;;;;;;;;;;5044513;28;20478;-52
2021/06/06 10:02:01;;;;;;;2.55;0.80;;;;;;;;;;5039444;28;20048;-55
2021/06/06 10:04:28;;;;;;;2.35;0.70;;;;;;;;;;5043980;28;20625;-55
2021/06/06 10:06:54;;;;;;;2.53;0.80;;;;;;;;;;5041501;28;20158;-55
2021/06/06 10:09:20;;;;;;;2.70;0.70;;;;;;;;;;5042139;28;20393;-54
2021/06/06 10:12:04;;;;;;;3.80;1.60;;;;;;;;;;5043572;28;20056;-55
2021/06/06 10:14:33;;;;;;;3.75;0.80;;;;;;;;;;5043187;28;20180;-55
2021/06/06 10:17:04;;;;;;;3.05;0.88;;;;;;;;;;5043427;28;20029;-55
2021/06/06 10:19:34;;;;;;;2.50;0.88;;;;;;;;;;5042922;28;20040;-54
2021/06/06 10:22:02;;;;;;;2.33;0.80;;;;;;;;;;5041541;28;20037;-55
2021/06/06 10:24:34;;;;;;;2.08;0.70;;;;;;;;;;5039969;28;20134;-53
2021/06/06 10:27:21;;;;;;;3.87;0.90;;;;;;;;;;5040634;28;20113;-56
2021/06/06 10:29:58;;;;;;;2.85;0.80;;;;;;;;;;5040849;28;20875;-56
2021/06/06 10:32:34;;;;;;;2.15;0.70;;;;;;;;;;5041034;28;20960;-54
2021/06/06 10:35:08;;;;;;;2.83;0.80;;;;;;;;;;5041105;28;20056;-55
2021/06/06 10:37:33;;;;;;;4.60;0.93;;;;;;;;;;5040214;28;20345;-52
2021/06/06 10:40:01;;;;;;;2.92;0.75;;;;;;;;;;5040124;28;20680;-56
2021/06/06 10:42:44;;;;;;;2.80;0.80;;;;;;;;;;5041413;28;20041;-56
2021/06/06 10:45:25;;;;;;;2.95;0.80;;;;;;;;;;5043021;28;20037;-54
2021/06/06 10:47:56;;;;;;;3.65;0.88;;;;;;;;;;5039347;28;20040;-52
2021/06/06 10:50:22;;;;;;;2.60;0.73;;;;;;;;;;5040217;28;20599;-55
2021/06/06 10:52:50;;;;;;;2.80;0.82;;;;;;;;;;5040973;28;20048;-56
2021/06/06 10:55:27;;;;;;;4.15;1.00;;;;;;;;;;5041711;28;20044;-53
2021/06/06 10:57:54;;;;;;;3.13;0.75;;;;;;;;;;5038400;28;20039;-56
2021/06/06 11:00:34;;;;;;;3.00;0.98;;;;;;;;;;5041123;28;20109;-55
2021/06/06 11:03:05;;;;;;;2.63;0.93;;;;;;;;;;5042071;28;20067;-51
2021/06/06 11:05:36;;;;;;;2.33;0.80;;;;;;;;;;5039558;28;20137;-54
2021/06/06 11:08:03;;;;;;;2.92;0.90;;;;;;;;;;5041365;28;20037;-55
2021/06/06 11:10:37;;;;;;;2.28;0.80;;;;;;;;;;5041228;28;20043;-55
2021/06/06 11:13:21;;;;;;;2.47;0.85;;;;;;;;;;5042910;28;20045;-54
2021/06/06 11:15:56;;;;;;;2.40;0.77;;;;;;;;;;5041078;28;20041;-55
2021/06/06 11:18:23;;;;;;;3.35;0.90;;;;;;;;;;5039383;28;20041;-52
2021/06/06 11:20:54;;;;;;;3.63;0.90;;;;;;;;;;5040825;28;20134;-54
2021/06/06 11:23:22;;;;;;;2.50;0.75;;;;;;;;;;5039955;28;20072;-51
2021/06/06 11:25:49;;;;;;;3.30;0.73;;;;;;;;;;5041879;28;20447;-55
2021/06/06 11:28:27;;;;;;;4.07;0.80;;;;;;;;;;5039853;28;20131;-55
2021/06/06 11:30:54;;;;;;;4.53;0.90;;;;;;;;;;5040017;28;20056;-55
2021/06/06 11:33:32;;;;;;;3.35;0.90;;;;;;;;;;5039676;28;20056;-55
2021/06/06 11:35:58;;;;;;;2.72;0.80;;;;;;;;;;5041609;28;20052;-54
2021/06/06 11:38:30;;;;;;;2.17;0.70;;;;;;;;;;5037940;28;20040;-54
2021/06/06 11:41:14;;;;;;;2.00;0.70;;;;;;;;;;5040068;28;20048;-55
2021/06/06 11:43:40;;;;;;;2.38;0.70;;;;;;;;;;5038118;28;20277;-55
2021/06/06 11:46:18;;;;;;;2.97;0.90;;;;;;;;;;5039425;28;20080;-56
2021/06/06 11:48:55;;;;;;;3.30;0.93;;;;;;;;;;5038990;28;20110;-55
2021/06/06 11:51:41;;;;;;;2.05;0.70;;;;;;;;;;5039826;28;20045;-55
2021/06/06 11:54:14;;;;;;;2.80;0.90;;;;;;;;;;5039743;28;20121;-53
2021/06/06 11:56:40;;;;;;;2.38;0.70;;;;;;;;;;5039579;28;20033;-56
2021/06/06 11:59:06;;;;;;;2.72;0.73;;;;;;;;;;5039619;28;20432;-55
2021/06/06 12:01:33;;;;;;;2.70;0.90;;;;;;;;;;5040577;28;20033;-53
2021/06/06 12:04:09;;;;;;;2.35;0.65;;;;;;;;;;5040850;28;20101;-55
2021/06/06 12:06:36;;;;;;;2.13;0.68;;;;;;;;;;5040996;28;20049;-55
2021/06/06 12:09:26;;;;;;;2.60;0.68;;;;;;;;;;5040293;28;20124;-55
2021/06/06 12:11:53;;;;;;;2.15;0.70;;;;;;;;;;5040109;28;20226;-54
2021/06/06 12:14:21;;;;;;;2.83;0.80;;;;;;;;;;5041521;28;20052;-55
2021/06/06 12:16:53;;;;;;;3.20;1.00;;;;;;;;;;5040972;28;20099;-56
2021/06/06 12:19:20;;;;;;;2.95;0.80;;;;;;;;;;5039444;28;20049;-56
2021/06/06 12:21:48;;;;;;;3.92;0.80;;;;;;;;;;5041380;28;20052;-55
2021/06/06 12:24:19;;;;;;;3.10;0.70;;;;;;;;;;5040727;28;20044;-55
2021/06/06 12:26:51;;;;;;;3.03;0.95;;;;;;;;;;5039617;28;20045;-53
2021/06/06 12:29:33;;;;;;;3.25;0.90;;;;;;;;;;5039192;28;20065;-55
2021/06/06 12:32:09;;;;;;;2.17;0.70;;;;;;;;;;5039407;28;20045;-56
2021/06/06 12:34:35;;;;;;;2.70;0.80;;;;;;;;;;5039708;28;20740;-53
2021/06/06 12:37:03;;;;;;;3.00;0.70;;;;;;;;;;5040785;28;20048;-55
2021/06/06 12:39:29;;;;;;;2.60;0.80;;;;;;;;;;5039814;28;20549;-54
2021/06/06 12:41:56;;;;;;;2.33;0.73;;;;;;;;;;5041039;28;20040;-56
2021/06/06 12:44:30;;;;;;;2.28;0.75;;;;;;;;;;5041678;28;20055;-54
2021/06/06 12:46:56;;;;;;;3.65;0.80;;;;;;;;;;5045350;28;20762;-56
2021/06/06 12:49:31;;;;;;;3.15;0.90;;;;;;;;;;5046537;28;20044;-55
2021/06/06 12:51:57;;;;;;;3.88;1.17;;;;;;;;;;5046064;28;20170;-55
2021/06/06 12:54:27;;;;;;;3.33;0.90;;;;;;;;;;5042223;28;20052;-53
2021/06/06 12:57:03;;;;;;;2.30;0.80;;;;;;;;;;5039948;28;20045;-55
2021/06/06 12:59:28;;;;;;;2.50;0.90;;;;;;;;;;5041340;28;20052;-54
2021/06/06 13:02:10;;;;;;;2.42;0.95;;;;;;;;;;5042432;28;20041;-56
2021/06/06 13:04:36;;;;;;;3.33;0.93;;;;;;;;;;5040485;28;20056;-54
2021/06/06 13:07:01;;;;;;;5.28;1.00;;;;;;;;;;5040812;28;20037;-52
2021/06/06 13:09:47;;;;;;;3.30;1.05;;;;;;;;;;5039525;28;20087;-54
2021/06/06 13:12:37;;;;;;;2.10;0.60;;;;;;;;;;5041939;28;20037;-52
2021/06/06 13:15:05;;;;;;;3.35;0.68;;;;;;;;;;5033027;28;20030;-55
2021/06/06 13:17:33;;;;;;;1.65;0.50;;;;;;;;;;5058715;28;20568;-55
2021/06/06 13:20:25;;;;;;;1.83;0.70;;;;;;;;;;5044868;28;20049;-54
2021/06/06 13:22:58;;;;;;;2.17;0.57;;;;;;;;;;5041643;28;20051;-55
2021/06/06 13:25:29;;;;;;;1.95;0.40;;;;;;;;;;5045710;28;20040;-53
2021/06/06 13:27:54;;;;;;;1.92;0.60;;;;;;;;;;5043034;28;20041;-56
2021/06/06 13:30:23;;;;;;;3.10;0.93;;;;;;;;;;5044244;28;20443;-52
2021/06/06 13:33:00;;;;;;;1.98;0.50;;;;;;;;;;5044902;28;20033;-53
2021/06/06 13:35:26;;;;;;;1.38;0.55;;;;;;;;;;5044026;28;20098;-54
2021/06/06 13:37:52;;;;;;;1.70;0.50;;;;;;;;;;5044055;28;20047;-55
2021/06/06 13:40:21;;;;;;;1.88;0.50;;;;;;;;;;5042062;28;20397;-54
2021/06/06 13:42:47;;;;;;;1.75;0.50;;;;;;;;;;5046308;28;20123;-55
2021/06/06 13:45:13;;;;;;;1.35;0.50;;;;;;;;;;5045008;28;20041;-55
2021/06/06 13:47:39;;;;;;;2.70;0.50;;;;;;;;;;5043204;28;20056;-55
2021/06/06 13:50:06;;;;;;;0.93;0.40;;;;;;;;;;5044777;28;20723;-56
2021/06/06 13:52:32;;;;;;;1.00;0.35;;;;;;;;;;5042292;28;20041;-53
2021/06/06 13:54:58;;;;;;;1.08;0.40;;;;;;;;;;5046761;28;20599;-54
2021/06/06 13:57:24;;;;;;;0.75;0.40;;;;;;;;;;5047297;28;20146;-55
2021/06/06 13:59:50;;;;;;;1.65;0.40;;;;;;;;;;5043867;28;20592;-54
2021/06/06 14:02:17;;;;;;;0.95;0.50;;;;;;;;;;5044642;28;20132;-53
2021/06/06 14:04:43;;;;;;;1.08;0.40;;;;;;;;;;5044154;28;20058;-54
2021/06/06 14:07:09;;;;;;;1.70;0.40;;;;;;;;;;5043065;28;20421;-56
2021/06/06 14:09:36;;;;;;;1.70;0.50;;;;;;;;;;5043012;28;20059;-56
2021/06/06 14:12:04;;;;;;;1.00;0.40;;;;;;;;;;5044189;28;20057;-56
2021/06/06 14:14:29;;;;;;;1.50;0.45;;;;;;;;;;5043390;28;20041;-56
2021/06/06 14:16:55;;;;;;;1.10;0.40;;;;;;;;;;5043151;28;20038;-55
2021/06/06 14:19:22;;;;;;;1.23;0.40;;;;;;;;;;5044077;28;20144;-55
2021/06/06 14:21:49;;;;;;;1.38;0.50;;;;;;;;;;5044991;28;20087;-56
2021/06/06 14:24:16;;;;;;;2.45;0.57;;;;;;;;;;5044291;28;20037;-53
2021/06/06 14:26:43;;;;;;;1.77;0.50;;;;;;;;;;5043946;28;20037;-56
2021/06/06 14:29:10;;;;;;;2.17;0.60;;;;;;;;;;5043616;28;20033;-55
2021/06/06 14:31:36;;;;;;;1.20;0.40;;;;;;;;;;5043886;28;20042;-53
2021/06/06 14:34:03;;;;;;;2.30;0.40;;;;;;;;;;5044044;28;20144;-55
2021/06/06 14:36:29;;;;;;;2.40;0.55;;;;;;;;;;5043869;28;20094;-54
2021/06/06 14:38:55;;;;;;;0.95;0.40;;;;;;;;;;5044858;28;20037;-55
2021/06/06 14:41:22;;;;;;;2.75;0.50;;;;;;;;;;5042403;28;20041;-55
2021/06/06 14:43:48;;;;;;;2.35;0.40;;;;;;;;;;5042498;28;20055;-55
2021/06/06 14:46:14;;;;;;;4.13;0.70;;;;;;;;;;5044503;28;22103;-56
2021/06/06 14:48:39;;;;;;;1.15;0.50;;;;;;;;;;5040599;28;20040;-54
2021/06/06 14:51:07;;;;;;;2.10;0.60;;;;;;;;;;5044201;28;20723;-56
2021/06/06 14:53:33;;;;;;;3.05;0.45;;;;;;;;;;5039840;28;20374;-56